createdAt,value
2019-04-23T00:00:07.600Z,3.60
2019-04-23T00:02:39.286Z,3.43
2019-04-23T00:05:08.198Z,3.40
2019-04-23T00:10:19.287Z,3.40
2019-04-23T00:12:47.812Z,3.20
2019-04-23T00:15:13.574Z,3.33
2019-04-23T00:20:14.721Z,3.03
2019-04-23T00:22:59.854Z,3.27
2019-04-23T00:28:16.096Z,3.37
2019-04-23T00:30:43.739Z,3.17
2019-04-23T00:33:12.399Z,3.57
2019-04-23T00:35:38.423Z,3.10
2019-04-23T00:40:47.282Z,3.37
2019-04-23T00:43:17.081Z,3.50
2019-04-23T00:45:44.532Z,3.10
2019-04-23T00:50:53.040Z,3.30
2019-04-23T01:00:52.788Z,3.53
2019-04-23T01:03:21.815Z,3.30
2019-04-23T01:05:52.401Z,3.47
2019-04-23T01:08:25.230Z,3.30
2019-04-23T01:16:08.609Z,3.57
2019-04-23T01:18:46.856Z,2.97
2019-04-23T01:20:54.150Z,3.30
2019-04-23T01:23:28.611Z,3.23
2019-04-23T01:26:03.828Z,2.87
2019-04-23T01:28:53.764Z,3.53
2019-04-23T01:31:20.145Z,3.30
2019-04-23T01:33:53.158Z,3.10
2019-04-23T01:36:25.332Z,2.93
2019-04-23T01:38:54.705Z,3.33
2019-04-23T01:41:28.972Z,3.40
2019-04-23T01:43:51.668Z,3.80
2019-04-23T01:46:32.166Z,3.40
2019-04-23T01:48:58.779Z,3.63
2019-04-23T01:51:36.675Z,3.50
2019-04-23T01:53:56.956Z,3.20
2019-04-23T01:56:30.780Z,3.23
2019-04-23T01:59:05.137Z,3.40
2019-04-23T02:01:36.049Z,3.60
2019-04-23T02:04:14.728Z,3.37
2019-04-23T02:06:53.739Z,3.10
2019-04-23T02:09:07.878Z,3.73
2019-04-23T02:11:40.352Z,3.50
2019-04-23T02:14:29.647Z,3.30
2019-04-23T02:16:57.911Z,2.93
2019-04-23T02:19:21.964Z,3.70
2019-04-23T02:21:55.036Z,3.50
2019-04-23T02:24:27.439Z,3.23
2019-04-23T02:27:03.194Z,2.87
2019-04-23T02:29:43.440Z,3.70
2019-04-23T02:32:01.457Z,3.17
2019-04-23T02:40:01.924Z,3.17
2019-04-23T02:44:38.901Z,3.57
2019-04-23T02:49:45.170Z,3.60
2019-04-23T02:52:15.579Z,3.30
2019-04-23T03:07:24.400Z,3.40
2019-04-23T03:09:51.725Z,3.33
2019-04-23T03:12:27.115Z,3.83
2019-04-23T03:15:09.284Z,3.10
2019-04-23T03:17:57.563Z,3.50
2019-04-23T03:23:00.990Z,3.33
2019-04-23T03:25:31.234Z,2.97
2019-04-23T03:28:15.540Z,3.10
2019-04-23T03:31:41.454Z,3.83
2019-04-23T03:34:04.120Z,3.37
2019-04-23T03:41:02.319Z,3.20
2019-04-23T03:43:37.492Z,3.70
2019-04-23T03:46:12.487Z,3.50
2019-04-23T03:48:34.125Z,3.20
2019-04-23T03:51:11.735Z,3.47
2019-04-23T03:53:34.689Z,3.23
2019-04-23T04:04:14.835Z,3.57
2019-04-23T04:06:05.505Z,3.40
2019-04-23T04:13:47.350Z,3.17
2019-04-23T04:19:00.344Z,3.30
2019-04-23T04:21:14.449Z,3.40
2019-04-23T04:23:43.089Z,3.30
2019-04-23T04:26:17.845Z,3.40
2019-04-23T04:31:18.739Z,3.50
2019-04-23T04:38:46.998Z,3.50
2019-04-23T04:41:25.110Z,3.27
2019-04-23T04:48:53.731Z,3.27
2019-04-23T04:51:31.937Z,3.10
2019-04-23T04:54:10.080Z,3.30
2019-04-23T04:59:00.286Z,3.13
2019-04-23T05:03:50.807Z,4.00
2019-04-23T05:06:39.133Z,3.50
2019-04-23T05:16:27.564Z,3.10
2019-04-23T05:19:06.201Z,3.40
2019-04-23T05:21:32.101Z,3.37
2019-04-23T05:24:00.636Z,3.00
2019-04-23T05:26:27.563Z,3.30
2019-04-23T05:29:03.775Z,3.33
2019-04-23T05:31:30.992Z,3.57
2019-04-23T05:34:03.138Z,3.20
2019-04-23T05:36:34.356Z,3.17
2019-04-23T05:39:11.707Z,3.17
2019-04-23T05:44:10.450Z,3.13
2019-04-23T05:51:44.568Z,3.50
2019-04-23T05:54:12.982Z,3.57
2019-04-23T05:56:38.797Z,3.13
2019-04-23T05:59:14.675Z,3.57
2019-04-23T06:04:22.040Z,3.40
2019-04-23T06:06:55.548Z,3.30
2019-04-23T06:11:54.249Z,3.27
2019-04-23T06:14:18.699Z,3.40
2019-04-23T06:17:06.279Z,3.60
2019-04-23T06:26:57.517Z,3.70
2019-04-23T06:29:25.622Z,3.40
2019-04-23T06:34:31.574Z,3.70
2019-04-23T06:39:28.539Z,3.67
2019-04-23T06:41:59.205Z,3.47
2019-04-23T06:49:47.306Z,3.90
2019-04-23T06:52:10.477Z,3.50
2019-04-23T06:54:42.340Z,3.50
2019-04-23T06:57:14.597Z,3.50
2019-04-23T06:59:33.543Z,3.50
2019-04-23T07:02:15.003Z,3.40
2019-04-23T07:04:43.368Z,3.50
2019-04-23T07:07:33.389Z,3.77
2019-04-23T07:09:35.229Z,3.70
2019-04-23T07:12:08.498Z,4.10
2019-04-23T07:14:44.281Z,4.20
2019-04-23T07:19:41.906Z,3.83
2019-04-23T07:24:43.654Z,4.70
2019-04-23T07:27:13.560Z,4.53
2019-04-23T07:29:50.621Z,4.23
2019-04-23T07:32:10.971Z,4.30
2019-04-23T07:34:49.415Z,4.50
2019-04-23T07:37:32.537Z,4.70
2019-04-23T07:39:57.094Z,4.60
2019-04-23T07:45:12.507Z,4.37
2019-04-23T07:48:08.093Z,4.60
2019-04-23T07:53:11.363Z,4.90
2019-04-23T07:56:00.905Z,4.80
2019-04-23T07:58:18.617Z,4.60
2019-04-23T08:00:48.760Z,4.47
2019-04-23T08:03:17.725Z,4.43
2019-04-23T08:05:38.682Z,4.17
2019-04-23T08:08:28.642Z,4.33
2019-04-23T08:10:47.090Z,4.57
2019-04-23T08:13:18.562Z,4.87
2019-04-23T08:18:19.855Z,4.73
2019-04-23T08:20:49.670Z,4.43
2019-04-23T08:23:16.560Z,4.97
2019-04-23T08:26:02.446Z,5.10
2019-04-23T08:28:43.399Z,4.80
2019-04-23T08:30:59.104Z,4.70
2019-04-23T08:33:32.188Z,4.47
2019-04-23T08:36:07.291Z,4.50
2019-04-23T08:41:12.964Z,4.70
2019-04-23T08:43:41.062Z,4.80
2019-04-23T08:46:23.125Z,5.17
2019-04-23T08:51:38.671Z,4.40
2019-04-23T08:54:13.379Z,4.87
2019-04-23T08:56:27.500Z,5.23
2019-04-23T08:58:47.450Z,5.07
2019-04-23T09:01:27.579Z,4.60
2019-04-23T09:03:54.352Z,5.00
2019-04-23T09:06:47.948Z,5.20
2019-04-23T09:08:56.849Z,4.90
2019-04-23T09:11:41.735Z,4.90
2019-04-23T09:13:57.653Z,5.43
2019-04-23T09:19:12.690Z,4.50
2019-04-23T09:21:33.195Z,5.20
2019-04-23T09:24:03.808Z,4.87
2019-04-23T09:26:33.087Z,4.77
2019-04-23T09:29:04.420Z,4.87
2019-04-23T09:32:07.376Z,5.13
2019-04-23T09:34:18.708Z,4.80
2019-04-23T09:36:58.167Z,4.90
2019-04-23T09:39:46.880Z,5.20
2019-04-23T09:42:31.894Z,4.73
2019-04-23T09:45:20.324Z,4.70
2019-04-23T09:47:57.228Z,4.57
2019-04-23T09:50:33.016Z,4.77
2019-04-23T09:53:07.925Z,5.10
2019-04-23T09:58:06.423Z,5.10
2019-04-23T10:02:56.858Z,5.07
2019-04-23T10:05:22.641Z,4.93
2019-04-23T10:07:50.806Z,4.47
2019-04-23T10:10:12.176Z,4.53
2019-04-23T10:12:42.069Z,5.00
2019-04-23T10:15:22.098Z,5.03
2019-04-23T10:17:42.513Z,5.03
2019-04-23T10:20:12.899Z,4.80
2019-04-23T10:22:42.298Z,4.77
2019-04-23T10:25:12.886Z,4.67
2019-04-23T10:27:45.240Z,5.00
2019-04-23T10:30:14.837Z,5.20
2019-04-23T10:32:45.304Z,5.10
2019-04-23T10:35:25.732Z,5.07
2019-04-23T10:37:54.066Z,5.00
2019-04-23T10:40:21.301Z,5.00
2019-04-23T10:42:48.389Z,4.90
2019-04-23T10:45:40.868Z,4.93
2019-04-23T10:49:00.519Z,5.00
2019-04-23T10:51:30.533Z,4.90
2019-04-23T10:53:56.942Z,5.00
2019-04-23T10:56:36.112Z,5.13
2019-04-23T10:58:53.943Z,5.10
2019-04-23T11:01:34.636Z,5.33
2019-04-23T11:06:44.285Z,5.50
2019-04-23T11:09:15.456Z,5.30
2019-04-23T11:11:48.345Z,5.47
2019-04-23T11:14:23.157Z,4.70
2019-04-23T11:21:54.558Z,5.13
2019-04-23T11:24:33.046Z,5.33
2019-04-23T11:26:52.906Z,5.07
2019-04-23T11:29:30.121Z,5.20
2019-04-23T11:32:19.383Z,5.27
2019-04-23T11:34:48.042Z,5.50
2019-04-23T11:41:57.982Z,5.00
2019-04-23T11:44:41.819Z,5.33
2019-04-23T11:49:51.562Z,5.70
2019-04-23T11:52:11.172Z,5.67
2019-04-23T11:54:30.742Z,5.47
2019-04-23T11:59:36.405Z,5.80
2019-04-23T12:02:19.324Z,5.83
2019-04-23T12:05:11.675Z,5.73
2019-04-23T12:07:34.344Z,5.97
2019-04-23T12:10:31.665Z,5.70
2019-04-23T12:12:49.970Z,5.70
2019-04-23T12:18:10.829Z,5.60
2019-04-23T12:20:27.174Z,6.33
2019-04-23T12:23:08.849Z,6.03
2019-04-23T12:27:48.410Z,6.13
2019-04-23T12:30:34.276Z,6.80
2019-04-23T12:33:24.605Z,6.90
2019-04-23T12:35:29.076Z,7.10
2019-04-23T12:45:50.215Z,7.00
2019-04-23T12:48:29.688Z,6.90
2019-04-23T12:53:19.913Z,6.80
2019-04-23T12:55:50.539Z,7.30
2019-04-23T12:58:20.349Z,7.23
2019-04-23T13:00:58.728Z,7.27
2019-04-23T13:03:26.118Z,7.17
2019-04-23T13:05:43.482Z,6.97
2019-04-23T13:10:51.259Z,7.33
2019-04-23T13:15:53.084Z,7.77
2019-04-23T13:20:53.979Z,7.67
2019-04-23T13:23:32.529Z,7.40
2019-04-23T13:25:59.617Z,7.70
2019-04-23T13:36:19.073Z,7.43
2019-04-23T13:38:41.824Z,8.10
2019-04-23T13:41:17.392Z,7.67
2019-04-23T13:46:12.828Z,7.93
2019-04-23T13:48:44.961Z,8.03
2019-04-23T13:54:04.840Z,7.97
2019-04-23T13:56:25.265Z,7.90
2019-04-23T13:58:51.125Z,7.70
2019-04-23T14:01:29.017Z,7.83
2019-04-23T14:03:59.975Z,7.70
2019-04-23T14:08:59.762Z,8.47
2019-04-23T14:14:08.782Z,7.73
2019-04-23T14:16:34.111Z,7.37
2019-04-23T14:28:59.487Z,8.43
2019-04-23T14:31:28.030Z,7.70
2019-04-23T14:34:06.363Z,7.43
2019-04-23T14:36:36.152Z,7.93
2019-04-23T14:39:05.614Z,8.13
2019-04-23T14:41:30.912Z,8.00
2019-04-23T14:46:49.931Z,7.57
2019-04-23T14:49:36.113Z,7.60
2019-04-23T14:54:37.307Z,7.77
2019-04-23T14:56:52.651Z,8.33
2019-04-23T14:59:13.481Z,8.10
2019-04-23T15:01:59.713Z,8.10
2019-04-23T15:04:28.688Z,7.70
2019-04-23T15:07:00.931Z,8.07
2019-04-23T15:09:27.651Z,8.03
2019-04-23T15:12:07.894Z,7.87
2019-04-23T15:14:33.941Z,7.90
2019-04-23T15:17:03.336Z,8.23
2019-04-23T15:22:07.792Z,7.70
2019-04-23T15:24:38.792Z,7.50
2019-04-23T15:29:27.973Z,7.87
2019-04-23T15:32:14.966Z,7.23
2019-04-23T15:34:45.422Z,7.70
2019-04-23T15:39:47.638Z,8.10
2019-04-23T15:44:51.211Z,7.97
2019-04-23T15:47:40.067Z,6.90
2019-04-23T15:49:53.181Z,7.73
2019-04-23T15:52:21.335Z,7.70
2019-04-23T15:57:32.577Z,8.37
2019-04-23T16:01:54.271Z,8.73
2019-04-23T16:04:24.172Z,8.97
2019-04-23T16:06:54.018Z,8.67
2019-04-23T16:09:54.126Z,8.23
2019-04-23T16:12:24.597Z,7.90
2019-04-23T16:15:02.692Z,7.77
2019-04-23T16:20:06.012Z,8.40
2019-04-23T16:22:32.035Z,7.77
2019-04-23T16:25:06.809Z,8.03
2019-04-23T16:27:29.390Z,8.00
2019-04-23T16:32:57.895Z,7.80
2019-04-23T16:38:10.361Z,7.97
2019-04-23T16:40:31.530Z,8.03
2019-04-23T16:43:05.421Z,7.87
2019-04-23T16:48:09.664Z,7.70
2019-04-23T16:53:14.627Z,8.50
2019-04-23T16:55:37.894Z,7.73
2019-04-23T16:58:15.174Z,8.00
2019-04-23T17:00:45.272Z,7.67
2019-04-23T17:03:25.135Z,8.13
2019-04-23T17:05:39.514Z,8.20
2019-04-23T17:10:46.729Z,7.50
2019-04-23T17:13:14.335Z,7.67
2019-04-23T17:15:53.380Z,8.00
2019-04-23T17:18:17.329Z,7.67
2019-04-23T17:20:46.929Z,7.97
2019-04-23T17:23:27.418Z,7.73
2019-04-23T17:25:48.516Z,7.90
2019-04-23T17:28:18.226Z,7.30
2019-04-23T17:30:52.647Z,7.70
2019-04-23T17:36:07.006Z,7.70
2019-04-23T17:44:00.283Z,7.37
2019-04-23T17:46:26.827Z,6.87
2019-04-23T17:49:04.862Z,7.57
2019-04-23T17:51:37.499Z,7.30
2019-04-23T17:54:14.283Z,6.57
2019-04-23T17:56:47.104Z,7.30
2019-04-23T17:59:12.048Z,7.03
2019-04-23T18:01:57.098Z,8.03
2019-04-23T18:04:23.942Z,7.20
2019-04-23T18:09:19.887Z,7.70
2019-04-23T18:14:11.501Z,6.77
2019-04-23T18:17:01.562Z,6.77
2019-04-23T18:19:16.851Z,6.60
2019-04-23T18:24:59.522Z,6.93
2019-04-23T18:27:26.245Z,7.13
2019-04-23T18:30:11.754Z,6.70
2019-04-23T18:33:38.242Z,6.53
2019-04-23T18:35:33.821Z,6.47
2019-04-23T18:37:58.447Z,6.83
2019-04-23T18:40:40.418Z,6.60
2019-04-23T18:43:11.651Z,6.20
2019-04-23T18:48:38.872Z,6.80
2019-04-23T18:51:02.988Z,6.60
2019-04-23T18:53:42.135Z,6.27
2019-04-23T18:58:34.118Z,6.37
2019-04-23T19:03:55.537Z,6.60
2019-04-23T19:09:10.023Z,5.53
2019-04-23T19:12:00.744Z,5.83
2019-04-23T19:14:30.526Z,5.93
2019-04-23T19:19:19.632Z,5.73
2019-04-23T19:24:21.998Z,5.87
2019-04-23T19:29:32.538Z,5.50
2019-04-23T19:31:56.879Z,5.53
2019-04-23T19:34:35.702Z,5.67
2019-04-23T19:37:18.694Z,5.70
2019-04-23T19:44:38.778Z,5.60
2019-04-23T19:47:25.722Z,5.07
2019-04-23T19:49:38.863Z,5.43
2019-04-23T19:52:04.363Z,4.90
2019-04-23T20:02:38.619Z,4.97
2019-04-23T20:07:20.005Z,5.57
2019-04-23T20:12:21.544Z,4.83
2019-04-23T20:20:04.544Z,4.97
2019-04-23T20:30:32.306Z,4.80
2019-04-23T20:31:58.238Z,5.00
2019-04-23T20:38:18.760Z,4.67
2019-04-23T20:40:25.789Z,4.60
2019-04-23T20:42:52.977Z,4.73
2019-04-23T20:45:27.549Z,4.60
2019-04-23T20:47:56.246Z,4.40
2019-04-23T20:50:37.674Z,4.03
2019-04-23T20:53:05.928Z,4.27
2019-04-23T20:58:21.195Z,4.90
2019-04-23T21:01:09.653Z,4.00
2019-04-23T21:03:47.350Z,4.90
2019-04-23T21:06:06.924Z,4.30
2019-04-23T21:08:53.844Z,3.93
2019-04-23T21:10:58.382Z,3.93
2019-04-23T21:16:05.016Z,4.10
2019-04-23T21:21:08.911Z,3.53
2019-04-23T21:23:44.156Z,3.83
2019-04-23T21:26:01.633Z,4.03
2019-04-23T21:28:44.370Z,3.57
2019-04-23T21:31:11.556Z,3.67
2019-04-23T21:36:38.873Z,3.43
2019-04-23T21:41:45.481Z,3.33
2019-04-23T21:49:16.289Z,3.20
2019-04-23T21:54:21.106Z,3.30
2019-04-23T21:56:44.624Z,3.50
2019-04-23T21:59:29.632Z,3.20
2019-04-23T22:02:03.871Z,3.17
2019-04-23T22:04:39.559Z,3.40
2019-04-23T22:07:05.149Z,3.00
2019-04-23T22:14:50.861Z,3.00
2019-04-23T22:17:20.546Z,2.97
2019-04-23T22:19:49.880Z,3.07
2019-04-23T22:22:12.644Z,2.90
2019-04-23T22:24:59.199Z,3.23
2019-04-23T22:27:09.842Z,3.20
2019-04-23T22:29:45.391Z,2.80
2019-04-23T22:32:21.579Z,3.40
2019-04-23T22:34:55.654Z,3.10
2019-04-23T22:37:24.159Z,2.70
2019-04-23T22:39:52.520Z,3.10
2019-04-23T22:42:40.701Z,2.90
2019-04-23T22:45:10.644Z,2.63
2019-04-23T22:47:25.975Z,3.07
2019-04-23T22:52:34.040Z,2.73
2019-04-23T22:57:56.629Z,2.90
2019-04-23T23:03:13.375Z,2.90
2019-04-23T23:05:53.911Z,2.90
2019-04-23T23:10:36.693Z,2.70
2019-04-23T23:13:13.745Z,2.90
2019-04-23T23:15:44.969Z,2.40
2019-04-23T23:18:16.683Z,2.90
2019-04-23T23:23:11.491Z,3.13
2019-04-23T23:25:39.688Z,2.80
2019-04-23T23:28:26.837Z,2.70
2019-04-23T23:30:55.134Z,2.60
2019-04-23T23:35:49.611Z,3.10
2019-04-23T23:43:29.787Z,2.93
2019-04-23T23:45:55.303Z,3.10
2019-04-23T23:48:18.713Z,2.70
2019-04-23T23:53:29.736Z,2.77
2019-04-23T23:58:29.090Z,3.30
